sensor_id;sensor_type;location;lat;lon;timestamp;P1;durP1;ratioP1;P2;durP2;ratioP2
36233;SDS011;43467;50.890;5.982;2023-03-01T00:03:28;11.20;;;9.05;;
36233;SDS011;43467;50.890;5.982;2023-03-01T00:05:53;14.35;;;9.55;;
36233;SDS011;43467;50.890;5.982;2023-03-01T00:08:19;14.52;;;8.70;;
36233;SDS011;43467;50.890;5.982;2023-03-01T00:10:44;11.40;;;9.00;;
36233;SDS011;43467;50.890;5.982;2023-03-01T00:13:09;11.90;;;8.85;;
36233;SDS011;43467;50.890;5.982;2023-03-01T00:15:37;12.75;;;9.18;;
36233;SDS011;43467;50.890;5.982;2023-03-01T00:18:04;13.32;;;8.73;;
36233;SDS011;43467;50.890;5.982;2023-03-01T00:20:30;14.13;;;9.15;;
36233;SDS011;43467;50.890;5.982;2023-03-01T00:22:55;14.50;;;9.15;;
36233;SDS011;43467;50.890;5.982;2023-03-01T00:25:20;14.10;;;9.35;;
36233;SDS011;43467;50.890;5.982;2023-03-01T00:27:46;12.15;;;9.75;;
36233;SDS011;43467;50.890;5.982;2023-03-01T00:30:11;13.55;;;9.52;;
36233;SDS011;43467;50.890;5.982;2023-03-01T00:32:37;15.80;;;9.30;;
36233;SDS011;43467;50.890;5.982;2023-03-01T00:35:03;12.60;;;9.40;;
36233;SDS011;43467;50.890;5.982;2023-03-01T00:37:28;14.70;;;9.20;;
36233;SDS011;43467;50.890;5.982;2023-03-01T00:39:53;17.02;;;9.88;;
36233;SDS011;43467;50.890;5.982;2023-03-01T00:42:19;14.77;;;9.55;;
36233;SDS011;43467;50.890;5.982;2023-03-01T00:44:44;12.73;;;9.40;;
36233;SDS011;43467;50.890;5.982;2023-03-01T00:47:10;24.77;;;13.32;;
36233;SDS011;43467;50.890;5.982;2023-03-01T00:49:35;13.30;;;9.98;;
36233;SDS011;43467;50.890;5.982;2023-03-01T00:52:00;12.07;;;9.35;;
36233;SDS011;43467;50.890;5.982;2023-03-01T00:54:26;16.98;;;9.70;;
36233;SDS011;43467;50.890;5.982;2023-03-01T00:56:51;12.52;;;9.10;;
36233;SDS011;43467;50.890;5.982;2023-03-01T00:59:16;15.88;;;9.95;;
36233;SDS011;43467;50.890;5.982;2023-03-01T01:01:42;12.35;;;9.40;;
36233;SDS011;43467;50.890;5.982;2023-03-01T01:04:08;12.55;;;9.20;;
36233;SDS011;43467;50.890;5.982;2023-03-01T01:06:37;13.70;;;9.50;;
36233;SDS011;43467;50.890;5.982;2023-03-01T01:09:06;12.88;;;9.65;;
36233;SDS011;43467;50.890;5.982;2023-03-01T01:11:32;13.70;;;9.52;;
36233;SDS011;43467;50.890;5.982;2023-03-01T01:13:59;13.05;;;10.25;;
36233;SDS011;43467;50.890;5.982;2023-03-01T01:16:25;14.65;;;9.10;;
36233;SDS011;43467;50.890;5.982;2023-03-01T01:18:52;14.85;;;9.30;;
36233;SDS011;43467;50.890;5.982;2023-03-01T01:21:19;13.73;;;8.65;;
36233;SDS011;43467;50.890;5.982;2023-03-01T01:23:47;15.40;;;10.02;;
36233;SDS011;43467;50.890;5.982;2023-03-01T01:26:13;12.48;;;9.35;;
36233;SDS011;43467;50.890;5.982;2023-03-01T01:28:42;11.45;;;8.75;;
36233;SDS011;43467;50.890;5.982;2023-03-01T01:31:07;13.80;;;8.57;;
36233;SDS011;43467;50.890;5.982;2023-03-01T01:33:33;14.05;;;9.48;;
36233;SDS011;43467;50.890;5.982;2023-03-01T01:35:59;14.20;;;9.75;;
36233;SDS011;43467;50.890;5.982;2023-03-01T01:38:24;15.60;;;9.93;;
36233;SDS011;43467;50.890;5.982;2023-03-01T01:40:50;14.30;;;9.70;;
36233;SDS011;43467;50.890;5.982;2023-03-01T01:45:52;16.75;;;9.52;;
36233;SDS011;43467;50.890;5.982;2023-03-01T01:48:22;12.18;;;8.82;;
36233;SDS011;43467;50.890;5.982;2023-03-01T01:50:55;15.13;;;10.23;;
36233;SDS011;43467;50.890;5.982;2023-03-01T01:53:25;12.35;;;9.18;;
36233;SDS011;43467;50.890;5.982;2023-03-01T01:55:53;13.23;;;9.18;;
36233;SDS011;43467;50.890;5.982;2023-03-01T01:58:22;13.20;;;9.52;;
36233;SDS011;43467;50.890;5.982;2023-03-01T02:00:50;11.82;;;8.70;;
36233;SDS011;43467;50.890;5.982;2023-03-01T02:03:20;14.90;;;8.90;;
36233;SDS011;43467;50.890;5.982;2023-03-01T02:08:44;13.57;;;9.60;;
36233;SDS011;43467;50.890;5.982;2023-03-01T02:11:12;12.85;;;9.10;;
36233;SDS011;43467;50.890;5.982;2023-03-01T02:13:39;12.95;;;9.27;;
36233;SDS011;43467;50.890;5.982;2023-03-01T02:16:09;12.75;;;8.77;;
36233;SDS011;43467;50.890;5.982;2023-03-01T02:18:39;13.05;;;9.55;;
36233;SDS011;43467;50.890;5.982;2023-03-01T02:27:04;16.00;;;10.38;;
36233;SDS011;43467;50.890;5.982;2023-03-01T02:29:30;12.35;;;8.75;;
36233;SDS011;43467;50.890;5.982;2023-03-01T02:31:57;14.80;;;9.48;;
36233;SDS011;43467;50.890;5.982;2023-03-01T02:34:25;15.88;;;10.52;;
36233;SDS011;43467;50.890;5.982;2023-03-01T02:36:56;13.93;;;9.38;;
36233;SDS011;43467;50.890;5.982;2023-03-01T02:39:30;14.43;;;9.40;;
36233;SDS011;43467;50.890;5.982;2023-03-01T02:41:59;16.38;;;9.63;;
36233;SDS011;43467;50.890;5.982;2023-03-01T02:44:27;15.23;;;9.82;;
36233;SDS011;43467;50.890;5.982;2023-03-01T02:46:54;17.13;;;10.82;;
36233;SDS011;43467;50.890;5.982;2023-03-01T02:49:25;15.10;;;10.10;;
36233;SDS011;43467;50.890;5.982;2023-03-01T02:54:44;15.23;;;10.75;;
36233;SDS011;43467;50.890;5.982;2023-03-01T02:57:23;15.93;;;9.73;;
36233;SDS011;43467;50.890;5.982;2023-03-01T02:59:52;14.63;;;10.07;;
36233;SDS011;43467;50.890;5.982;2023-03-01T03:02:21;15.68;;;10.05;;
36233;SDS011;43467;50.890;5.982;2023-03-01T03:07:48;17.08;;;11.52;;
36233;SDS011;43467;50.890;5.982;2023-03-01T03:10:19;16.50;;;10.38;;
36233;SDS011;43467;50.890;5.982;2023-03-01T03:12:57;15.98;;;10.02;;
36233;SDS011;43467;50.890;5.982;2023-03-01T03:15:26;17.60;;;10.70;;
36233;SDS011;43467;50.890;5.982;2023-03-01T03:17:52;18.02;;;10.40;;
36233;SDS011;43467;50.890;5.982;2023-03-01T03:20:20;15.73;;;11.57;;
36233;SDS011;43467;50.890;5.982;2023-03-01T03:22:49;18.45;;;10.63;;
36233;SDS011;43467;50.890;5.982;2023-03-01T03:25:16;12.15;;;9.32;;
36233;SDS011;43467;50.890;5.982;2023-03-01T03:27:43;16.00;;;10.32;;
36233;SDS011;43467;50.890;5.982;2023-03-01T03:30:10;14.05;;;10.05;;
36233;SDS011;43467;50.890;5.982;2023-03-01T03:32:41;12.80;;;9.60;;
36233;SDS011;43467;50.890;5.982;2023-03-01T03:35:17;15.35;;;10.05;;
36233;SDS011;43467;50.890;5.982;2023-03-01T03:37:43;15.05;;;10.13;;
36233;SDS011;43467;50.890;5.982;2023-03-01T03:40:27;15.95;;;10.30;;
36233;SDS011;43467;50.890;5.982;2023-03-01T03:43:05;18.50;;;10.27;;
36233;SDS011;43467;50.890;5.982;2023-03-01T03:45:34;17.75;;;11.63;;
36233;SDS011;43467;50.890;5.982;2023-03-01T03:48:01;16.23;;;11.02;;
36233;SDS011;43467;50.890;5.982;2023-03-01T03:50:28;16.40;;;11.35;;
36233;SDS011;43467;50.890;5.982;2023-03-01T03:52:54;19.25;;;11.52;;
36233;SDS011;43467;50.890;5.982;2023-03-01T03:55:19;19.85;;;11.95;;
36233;SDS011;43467;50.890;5.982;2023-03-01T03:57:46;16.77;;;10.90;;
36233;SDS011;43467;50.890;5.982;2023-03-01T04:00:17;18.42;;;11.20;;
36233;SDS011;43467;50.890;5.982;2023-03-01T04:02:45;16.73;;;11.20;;
36233;SDS011;43467;50.890;5.982;2023-03-01T04:05:12;17.10;;;11.30;;
36233;SDS011;43467;50.890;5.982;2023-03-01T04:07:40;18.92;;;10.90;;
36233;SDS011;43467;50.890;5.982;2023-03-01T04:10:07;16.48;;;10.80;;
36233;SDS011;43467;50.890;5.982;2023-03-01T04:12:36;15.50;;;10.40;;
36233;SDS011;43467;50.890;5.982;2023-03-01T04:15:04;14.60;;;11.20;;
36233;SDS011;43467;50.890;5.982;2023-03-01T04:17:41;21.42;;;13.10;;
36233;SDS011;43467;50.890;5.982;2023-03-01T04:20:09;15.13;;;11.07;;
36233;SDS011;43467;50.890;5.982;2023-03-01T04:22:36;15.73;;;10.77;;
36233;SDS011;43467;50.890;5.982;2023-03-01T04:25:02;14.75;;;10.85;;
36233;SDS011;43467;50.890;5.982;2023-03-01T04:27:27;13.80;;;10.52;;
36233;SDS011;43467;50.890;5.982;2023-03-01T04:29:53;13.00;;;10.02;;
36233;SDS011;43467;50.890;5.982;2023-03-01T04:32:18;14.90;;;10.50;;
36233;SDS011;43467;50.890;5.982;2023-03-01T04:34:43;18.10;;;11.00;;
36233;SDS011;43467;50.890;5.982;2023-03-01T04:37:09;16.45;;;10.85;;
36233;SDS011;43467;50.890;5.982;2023-03-01T04:39:34;17.55;;;11.65;;
36233;SDS011;43467;50.890;5.982;2023-03-01T04:42:10;15.15;;;10.73;;
36233;SDS011;43467;50.890;5.982;2023-03-01T04:44:36;12.80;;;10.30;;
36233;SDS011;43467;50.890;5.982;2023-03-01T04:47:01;17.65;;;12.55;;
36233;SDS011;43467;50.890;5.982;2023-03-01T04:49:26;15.65;;;11.68;;
36233;SDS011;43467;50.890;5.982;2023-03-01T04:51:52;18.60;;;11.43;;
36233;SDS011;43467;50.890;5.982;2023-03-01T04:54:17;14.98;;;11.07;;
36233;SDS011;43467;50.890;5.982;2023-03-01T04:56:42;16.40;;;11.27;;
36233;SDS011;43467;50.890;5.982;2023-03-01T04:59:08;15.18;;;10.60;;
36233;SDS011;43467;50.890;5.982;2023-03-01T05:01:35;16.33;;;11.98;;
36233;SDS011;43467;50.890;5.982;2023-03-01T05:04:00;20.75;;;12.02;;
36233;SDS011;43467;50.890;5.982;2023-03-01T05:06:28;20.77;;;13.35;;
36233;SDS011;43467;50.890;5.982;2023-03-01T05:08:53;18.23;;;12.80;;
36233;SDS011;43467;50.890;5.982;2023-03-01T05:11:18;16.88;;;11.90;;
36233;SDS011;43467;50.890;5.982;2023-03-01T05:13:44;17.88;;;12.98;;
36233;SDS011;43467;50.890;5.982;2023-03-01T05:16:10;17.83;;;11.48;;
36233;SDS011;43467;50.890;5.982;2023-03-01T05:18:36;16.42;;;11.85;;
36233;SDS011;43467;50.890;5.982;2023-03-01T05:21:05;19.42;;;12.40;;
36233;SDS011;43467;50.890;5.982;2023-03-01T05:23:40;16.77;;;11.88;;
36233;SDS011;43467;50.890;5.982;2023-03-01T05:26:07;16.90;;;13.15;;
36233;SDS011;43467;50.890;5.982;2023-03-01T05:28:33;16.33;;;11.95;;
36233;SDS011;43467;50.890;5.982;2023-03-01T05:30:58;16.80;;;11.60;;
36233;SDS011;43467;50.890;5.982;2023-03-01T05:33:24;17.95;;;12.35;;
36233;SDS011;43467;50.890;5.982;2023-03-01T05:35:51;20.08;;;13.02;;
36233;SDS011;43467;50.890;5.982;2023-03-01T05:38:18;16.88;;;12.45;;
36233;SDS011;43467;50.890;5.982;2023-03-01T05:40:45;18.00;;;13.10;;
36233;SDS011;43467;50.890;5.982;2023-03-01T05:43:12;20.13;;;13.98;;
36233;SDS011;43467;50.890;5.982;2023-03-01T05:45:39;21.40;;;12.23;;
36233;SDS011;43467;50.890;5.982;2023-03-01T05:48:06;18.33;;;13.02;;
36233;SDS011;43467;50.890;5.982;2023-03-01T05:50:33;19.90;;;13.60;;
36233;SDS011;43467;50.890;5.982;2023-03-01T05:53:02;19.85;;;12.90;;
36233;SDS011;43467;50.890;5.982;2023-03-01T05:55:38;20.35;;;12.48;;
36233;SDS011;43467;50.890;5.982;2023-03-01T05:58:06;17.88;;;12.80;;
36233;SDS011;43467;50.890;5.982;2023-03-01T06:00:42;18.45;;;12.85;;
36233;SDS011;43467;50.890;5.982;2023-03-01T06:03:09;18.13;;;12.20;;
36233;SDS011;43467;50.890;5.982;2023-03-01T06:05:38;18.13;;;12.65;;
36233;SDS011;43467;50.890;5.982;2023-03-01T06:08:05;18.65;;;13.48;;
36233;SDS011;43467;50.890;5.982;2023-03-01T06:10:31;20.95;;;12.82;;
36233;SDS011;43467;50.890;5.982;2023-03-01T06:12:56;17.02;;;12.52;;
36233;SDS011;43467;50.890;5.982;2023-03-01T06:15:22;18.55;;;12.13;;
36233;SDS011;43467;50.890;5.982;2023-03-01T06:17:47;16.50;;;12.25;;
36233;SDS011;43467;50.890;5.982;2023-03-01T06:20:23;15.85;;;12.35;;
36233;SDS011;43467;50.890;5.982;2023-03-01T06:22:49;16.80;;;12.48;;
36233;SDS011;43467;50.890;5.982;2023-03-01T06:25:19;18.23;;;12.88;;
36233;SDS011;43467;50.890;5.982;2023-03-01T06:27:47;19.90;;;14.20;;
36233;SDS011;43467;50.890;5.982;2023-03-01T06:30:14;22.55;;;13.18;;
36233;SDS011;43467;50.890;5.982;2023-03-01T06:32:41;19.08;;;13.18;;
36233;SDS011;43467;50.890;5.982;2023-03-01T06:35:07;18.60;;;12.88;;
36233;SDS011;43467;50.890;5.982;2023-03-01T06:37:33;19.30;;;12.32;;
36233;SDS011;43467;50.890;5.982;2023-03-01T06:40:00;22.50;;;14.35;;
36233;SDS011;43467;50.890;5.982;2023-03-01T06:42:29;20.50;;;13.00;;
36233;SDS011;43467;50.890;5.982;2023-03-01T06:44:55;18.33;;;12.50;;
36233;SDS011;43467;50.890;5.982;2023-03-01T06:47:20;23.77;;;14.27;;
36233;SDS011;43467;50.890;5.982;2023-03-01T06:49:45;22.10;;;13.35;;
36233;SDS011;43467;50.890;5.982;2023-03-01T06:52:11;20.27;;;14.23;;
36233;SDS011;43467;50.890;5.982;2023-03-01T06:54:36;17.65;;;12.77;;
36233;SDS011;43467;50.890;5.982;2023-03-01T06:57:01;20.33;;;14.35;;
36233;SDS011;43467;50.890;5.982;2023-03-01T06:59:27;20.48;;;13.90;;
36233;SDS011;43467;50.890;5.982;2023-03-01T07:01:52;21.35;;;13.80;;
36233;SDS011;43467;50.890;5.982;2023-03-01T07:04:18;19.90;;;12.80;;
36233;SDS011;43467;50.890;5.982;2023-03-01T07:06:43;22.88;;;13.63;;
36233;SDS011;43467;50.890;5.982;2023-03-01T07:09:08;21.27;;;13.63;;
36233;SDS011;43467;50.890;5.982;2023-03-01T07:11:34;22.65;;;14.57;;
36233;SDS011;43467;50.890;5.982;2023-03-01T07:13:59;25.70;;;13.30;;
36233;SDS011;43467;50.890;5.982;2023-03-01T07:16:25;18.88;;;13.18;;
36233;SDS011;43467;50.890;5.982;2023-03-01T07:18:50;23.15;;;14.55;;
36233;SDS011;43467;50.890;5.982;2023-03-01T07:21:16;22.75;;;15.02;;
36233;SDS011;43467;50.890;5.982;2023-03-01T07:23:41;20.38;;;14.48;;
36233;SDS011;43467;50.890;5.982;2023-03-01T07:26:07;23.25;;;14.68;;
36233;SDS011;43467;50.890;5.982;2023-03-01T07:28:32;20.88;;;14.60;;
36233;SDS011;43467;50.890;5.982;2023-03-01T07:31:03;24.13;;;14.95;;
36233;SDS011;43467;50.890;5.982;2023-03-01T07:33:30;23.00;;;14.77;;
36233;SDS011;43467;50.890;5.982;2023-03-01T07:35:59;24.50;;;15.23;;
36233;SDS011;43467;50.890;5.982;2023-03-01T07:38:26;23.80;;;16.55;;
36233;SDS011;43467;50.890;5.982;2023-03-01T07:40:52;20.85;;;15.13;;
36233;SDS011;43467;50.890;5.982;2023-03-01T07:43:17;25.42;;;15.45;;
36233;SDS011;43467;50.890;5.982;2023-03-01T07:45:43;24.08;;;15.13;;
36233;SDS011;43467;50.890;5.982;2023-03-01T07:48:08;22.88;;;15.02;;
36233;SDS011;43467;50.890;5.982;2023-03-01T07:50:34;24.65;;;14.25;;
36233;SDS011;43467;50.890;5.982;2023-03-01T07:53:00;22.58;;;15.25;;
36233;SDS011;43467;50.890;5.982;2023-03-01T07:55:25;21.63;;;14.45;;
36233;SDS011;43467;50.890;5.982;2023-03-01T07:57:51;24.48;;;13.70;;
36233;SDS011;43467;50.890;5.982;2023-03-01T08:00:16;23.65;;;13.80;;
36233;SDS011;43467;50.890;5.982;2023-03-01T08:02:42;26.98;;;14.38;;
36233;SDS011;43467;50.890;5.982;2023-03-01T08:05:08;21.60;;;14.45;;
36233;SDS011;43467;50.890;5.982;2023-03-01T08:07:35;24.70;;;14.68;;
36233;SDS011;43467;50.890;5.982;2023-03-01T08:10:00;22.50;;;14.15;;
36233;SDS011;43467;50.890;5.982;2023-03-01T08:12:25;21.52;;;14.77;;
36233;SDS011;43467;50.890;5.982;2023-03-01T08:14:53;18.30;;;13.38;;
36233;SDS011;43467;50.890;5.982;2023-03-01T08:17:20;26.25;;;14.70;;
36233;SDS011;43467;50.890;5.982;2023-03-01T08:19:45;23.50;;;14.20;;
36233;SDS011;43467;50.890;5.982;2023-03-01T08:22:11;19.30;;;14.52;;
36233;SDS011;43467;50.890;5.982;2023-03-01T08:24:36;21.98;;;14.82;;
36233;SDS011;43467;50.890;5.982;2023-03-01T08:27:01;22.50;;;14.68;;
36233;SDS011;43467;50.890;5.982;2023-03-01T08:29:27;21.65;;;14.70;;
36233;SDS011;43467;50.890;5.982;2023-03-01T08:31:55;24.30;;;14.77;;
36233;SDS011;43467;50.890;5.982;2023-03-01T08:34:20;22.27;;;15.77;;
36233;SDS011;43467;50.890;5.982;2023-03-01T08:36:46;24.88;;;14.65;;
36233;SDS011;43467;50.890;5.982;2023-03-01T08:39:12;23.98;;;14.85;;
36233;SDS011;43467;50.890;5.982;2023-03-01T08:41:40;28.60;;;14.30;;
36233;SDS011;43467;50.890;5.982;2023-03-01T08:44:06;26.80;;;15.13;;
36233;SDS011;43467;50.890;5.982;2023-03-01T08:46:32;27.27;;;16.30;;
36233;SDS011;43467;50.890;5.982;2023-03-01T08:49:12;26.67;;;15.52;;
36233;SDS011;43467;50.890;5.982;2023-03-01T08:51:39;25.23;;;14.77;;
36233;SDS011;43467;50.890;5.982;2023-03-01T08:54:06;29.13;;;15.50;;
36233;SDS011;43467;50.890;5.982;2023-03-01T08:56:35;25.50;;;15.30;;
36233;SDS011;43467;50.890;5.982;2023-03-01T08:59:01;23.58;;;16.10;;
36233;SDS011;43467;50.890;5.982;2023-03-01T09:01:27;26.42;;;15.15;;
36233;SDS011;43467;50.890;5.982;2023-03-01T09:03:52;23.02;;;15.00;;
36233;SDS011;43467;50.890;5.982;2023-03-01T09:06:18;24.75;;;14.18;;
36233;SDS011;43467;50.890;5.982;2023-03-01T09:08:45;24.58;;;14.50;;
36233;SDS011;43467;50.890;5.982;2023-03-01T09:11:14;20.90;;;14.93;;
36233;SDS011;43467;50.890;5.982;2023-03-01T09:13:44;23.27;;;15.23;;
36233;SDS011;43467;50.890;5.982;2023-03-01T09:16:10;22.27;;;14.77;;
36233;SDS011;43467;50.890;5.982;2023-03-01T09:18:37;22.73;;;15.80;;
36233;SDS011;43467;50.890;5.982;2023-03-01T09:23:35;24.83;;;15.57;;
36233;SDS011;43467;50.890;5.982;2023-03-01T09:26:06;25.38;;;16.05;;
36233;SDS011;43467;50.890;5.982;2023-03-01T09:28:34;25.05;;;16.63;;
36233;SDS011;43467;50.890;5.982;2023-03-01T09:31:00;25.88;;;15.07;;
36233;SDS011;43467;50.890;5.982;2023-03-01T09:33:27;26.85;;;17.05;;
36233;SDS011;43467;50.890;5.982;2023-03-01T09:36:00;28.60;;;16.15;;
36233;SDS011;43467;50.890;5.982;2023-03-01T09:38:28;24.00;;;15.15;;
36233;SDS011;43467;50.890;5.982;2023-03-01T09:40:54;23.60;;;16.25;;
36233;SDS011;43467;50.890;5.982;2023-03-01T09:44:05;28.73;;;15.50;;
36233;SDS011;43467;50.890;5.982;2023-03-01T09:46:06;23.83;;;16.35;;
36233;SDS011;43467;50.890;5.982;2023-03-01T09:49:09;24.10;;;15.40;;
36233;SDS011;43467;50.890;5.982;2023-03-01T09:51:30;23.15;;;16.08;;
36233;SDS011;43467;50.890;5.982;2023-03-01T09:53:57;24.42;;;15.68;;
36233;SDS011;43467;50.890;5.982;2023-03-01T09:56:39;22.00;;;15.00;;
36233;SDS011;43467;50.890;5.982;2023-03-01T10:11:14;27.77;;;17.48;;
36233;SDS011;43467;50.890;5.982;2023-03-01T10:19:23;25.13;;;16.15;;
36233;SDS011;43467;50.890;5.982;2023-03-01T10:22:18;24.60;;;16.77;;
36233;SDS011;43467;50.890;5.982;2023-03-01T10:24:50;29.85;;;17.17;;
36233;SDS011;43467;50.890;5.982;2023-03-01T10:27:24;25.75;;;15.88;;
36233;SDS011;43467;50.890;5.982;2023-03-01T10:32:42;27.52;;;16.55;;
36233;SDS011;43467;50.890;5.982;2023-03-01T10:35:18;23.67;;;15.27;;
36233;SDS011;43467;50.890;5.982;2023-03-01T10:40:34;25.98;;;15.93;;
36233;SDS011;43467;50.890;5.982;2023-03-01T10:43:04;24.15;;;15.75;;
36233;SDS011;43467;50.890;5.982;2023-03-01T10:45:37;22.88;;;16.48;;
36233;SDS011;43467;50.890;5.982;2023-03-01T10:48:14;24.52;;;15.57;;
36233;SDS011;43467;50.890;5.982;2023-03-01T10:50:49;28.35;;;17.02;;
36233;SDS011;43467;50.890;5.982;2023-03-01T10:53:37;24.05;;;16.30;;
36233;SDS011;43467;50.890;5.982;2023-03-01T11:01:46;22.20;;;14.95;;
36233;SDS011;43467;50.890;5.982;2023-03-01T11:04:59;27.98;;;16.05;;
36233;SDS011;43467;50.890;5.982;2023-03-01T11:07:27;22.95;;;15.52;;
36233;SDS011;43467;50.890;5.982;2023-03-01T11:09:52;22.45;;;16.73;;
36233;SDS011;43467;50.890;5.982;2023-03-01T11:12:18;24.77;;;16.55;;
36233;SDS011;43467;50.890;5.982;2023-03-01T11:14:46;24.80;;;15.82;;
36233;SDS011;43467;50.890;5.982;2023-03-01T11:17:18;23.85;;;15.73;;
36233;SDS011;43467;50.890;5.982;2023-03-01T11:23:03;24.80;;;14.73;;
36233;SDS011;43467;50.890;5.982;2023-03-01T11:25:35;24.38;;;15.45;;
36233;SDS011;43467;50.890;5.982;2023-03-01T11:28:03;22.83;;;14.65;;
36233;SDS011;43467;50.890;5.982;2023-03-01T11:33:18;24.40;;;15.50;;
36233;SDS011;43467;50.890;5.982;2023-03-01T11:38:51;24.60;;;14.45;;
36233;SDS011;43467;50.890;5.982;2023-03-01T11:41:36;25.23;;;16.98;;
36233;SDS011;43467;50.890;5.982;2023-03-01T11:49:44;27.92;;;17.15;;
36233;SDS011;43467;50.890;5.982;2023-03-01T11:55:02;28.05;;;16.15;;
36233;SDS011;43467;50.890;5.982;2023-03-01T12:09:14;23.65;;;16.20;;
36233;SDS011;43467;50.890;5.982;2023-03-01T12:28:49;22.38;;;15.05;;
36233;SDS011;43467;50.890;5.982;2023-03-01T12:37:06;25.60;;;14.80;;
36233;SDS011;43467;50.890;5.982;2023-03-01T12:48:32;22.90;;;16.50;;
36233;SDS011;43467;50.890;5.982;2023-03-01T12:51:07;24.95;;;16.20;;
36233;SDS011;43467;50.890;5.982;2023-03-01T12:53:40;24.35;;;15.40;;
36233;SDS011;43467;50.890;5.982;2023-03-01T12:56:11;25.27;;;16.00;;
36233;SDS011;43467;50.890;5.982;2023-03-01T13:07:26;25.15;;;15.07;;
36233;SDS011;43467;50.890;5.982;2023-03-01T13:10:21;22.48;;;13.43;;
36233;SDS011;43467;50.890;5.982;2023-03-01T13:12:53;22.52;;;14.93;;
36233;SDS011;43467;50.890;5.982;2023-03-01T13:15:28;18.75;;;13.30;;
36233;SDS011;43467;50.890;5.982;2023-03-01T13:17:57;20.55;;;13.43;;
36233;SDS011;43467;50.890;5.982;2023-03-01T13:23:21;22.25;;;13.65;;
36233;SDS011;43467;50.890;5.982;2023-03-01T13:30:57;21.08;;;12.63;;
36233;SDS011;43467;50.890;5.982;2023-03-01T13:35:48;19.10;;;13.30;;
36233;SDS011;43467;50.890;5.982;2023-03-01T13:41:01;23.90;;;14.52;;
36233;SDS011;43467;50.890;5.982;2023-03-01T13:43:28;20.13;;;13.27;;
36233;SDS011;43467;50.890;5.982;2023-03-01T13:45:56;23.67;;;14.35;;
36233;SDS011;43467;50.890;5.982;2023-03-01T13:48:24;18.63;;;12.70;;
36233;SDS011;43467;50.890;5.982;2023-03-01T13:50:59;23.48;;;14.20;;
36233;SDS011;43467;50.890;5.982;2023-03-01T13:53:28;18.88;;;14.15;;
36233;SDS011;43467;50.890;5.982;2023-03-01T13:56:13;21.38;;;13.18;;
36233;SDS011;43467;50.890;5.982;2023-03-01T13:58:49;20.40;;;13.20;;
36233;SDS011;43467;50.890;5.982;2023-03-01T14:01:27;21.83;;;13.65;;
36233;SDS011;43467;50.890;5.982;2023-03-01T14:03:54;18.13;;;11.63;;
36233;SDS011;43467;50.890;5.982;2023-03-01T14:06:21;19.50;;;13.32;;
36233;SDS011;43467;50.890;5.982;2023-03-01T14:08:50;16.38;;;11.90;;
36233;SDS011;43467;50.890;5.982;2023-03-01T14:19:27;21.95;;;12.05;;
36233;SDS011;43467;50.890;5.982;2023-03-01T14:21:58;20.60;;;12.50;;
36233;SDS011;43467;50.890;5.982;2023-03-01T14:24:28;21.45;;;13.35;;
36233;SDS011;43467;50.890;5.982;2023-03-01T14:26:55;19.85;;;13.27;;
36233;SDS011;43467;50.890;5.982;2023-03-01T14:29:36;16.77;;;12.68;;
36233;SDS011;43467;50.890;5.982;2023-03-01T14:34:50;16.80;;;11.43;;
36233;SDS011;43467;50.890;5.982;2023-03-01T14:37:20;16.85;;;11.65;;
36233;SDS011;43467;50.890;5.982;2023-03-01T14:39:51;17.83;;;11.13;;
36233;SDS011;43467;50.890;5.982;2023-03-01T14:42:18;17.35;;;10.85;;
36233;SDS011;43467;50.890;5.982;2023-03-01T14:44:46;17.33;;;11.07;;
36233;SDS011;43467;50.890;5.982;2023-03-01T14:47:15;13.45;;;9.95;;
36233;SDS011;43467;50.890;5.982;2023-03-01T14:49:49;13.73;;;10.10;;
36233;SDS011;43467;50.890;5.982;2023-03-01T14:52:21;13.95;;;10.25;;
36233;SDS011;43467;50.890;5.982;2023-03-01T14:54:53;15.88;;;9.35;;
36233;SDS011;43467;50.890;5.982;2023-03-01T14:57:21;13.77;;;9.63;;
36233;SDS011;43467;50.890;5.982;2023-03-01T14:59:51;13.00;;;9.77;;
36233;SDS011;43467;50.890;5.982;2023-03-01T15:02:20;13.32;;;9.05;;
36233;SDS011;43467;50.890;5.982;2023-03-01T15:04:49;17.65;;;9.57;;
36233;SDS011;43467;50.890;5.982;2023-03-01T15:07:17;14.77;;;8.98;;
36233;SDS011;43467;50.890;5.982;2023-03-01T15:09:44;12.68;;;8.57;;
36233;SDS011;43467;50.890;5.982;2023-03-01T15:14:55;30.15;;;9.40;;
36233;SDS011;43467;50.890;5.982;2023-03-01T15:20:01;11.80;;;8.20;;
36233;SDS011;43467;50.890;5.982;2023-03-01T15:22:29;12.82;;;8.93;;
36233;SDS011;43467;50.890;5.982;2023-03-01T15:24:55;14.50;;;9.45;;
36233;SDS011;43467;50.890;5.982;2023-03-01T15:27:22;13.75;;;8.77;;
36233;SDS011;43467;50.890;5.982;2023-03-01T15:29:53;16.17;;;9.63;;
36233;SDS011;43467;50.890;5.982;2023-03-01T15:35:31;12.32;;;8.43;;
36233;SDS011;43467;50.890;5.982;2023-03-01T15:41:27;17.23;;;8.40;;
36233;SDS011;43467;50.890;5.982;2023-03-01T15:43:57;19.90;;;8.45;;
36233;SDS011;43467;50.890;5.982;2023-03-01T15:48:53;13.43;;;8.95;;
36233;SDS011;43467;50.890;5.982;2023-03-01T15:51:34;14.43;;;8.38;;
36233;SDS011;43467;50.890;5.982;2023-03-01T15:54:20;11.38;;;7.93;;
36233;SDS011;43467;50.890;5.982;2023-03-01T15:56:48;12.05;;;8.35;;
36233;SDS011;43467;50.890;5.982;2023-03-01T15:59:14;13.82;;;8.85;;
36233;SDS011;43467;50.890;5.982;2023-03-01T16:01:42;16.15;;;8.55;;
36233;SDS011;43467;50.890;5.982;2023-03-01T16:04:12;13.25;;;8.40;;
36233;SDS011;43467;50.890;5.982;2023-03-01T16:06:45;14.23;;;7.47;;
36233;SDS011;43467;50.890;5.982;2023-03-01T16:09:23;11.90;;;8.18;;
36233;SDS011;43467;50.890;5.982;2023-03-01T16:11:49;12.48;;;7.90;;
36233;SDS011;43467;50.890;5.982;2023-03-01T16:14:15;12.90;;;8.20;;
36233;SDS011;43467;50.890;5.982;2023-03-01T16:16:41;15.82;;;8.65;;
36233;SDS011;43467;50.890;5.982;2023-03-01T16:19:07;12.93;;;8.13;;
36233;SDS011;43467;50.890;5.982;2023-03-01T16:21:32;14.80;;;8.82;;
36233;SDS011;43467;50.890;5.982;2023-03-01T16:23:58;11.48;;;8.85;;
36233;SDS011;43467;50.890;5.982;2023-03-01T16:26:23;12.85;;;8.60;;
36233;SDS011;43467;50.890;5.982;2023-03-01T16:28:49;15.32;;;8.75;;
36233;SDS011;43467;50.890;5.982;2023-03-01T16:31:16;12.77;;;8.02;;
36233;SDS011;43467;50.890;5.982;2023-03-01T16:33:43;11.32;;;8.10;;
36233;SDS011;43467;50.890;5.982;2023-03-01T16:36:14;15.82;;;8.88;;
36233;SDS011;43467;50.890;5.982;2023-03-01T16:38:40;18.27;;;9.02;;
36233;SDS011;43467;50.890;5.982;2023-03-01T16:41:05;15.15;;;8.55;;
36233;SDS011;43467;50.890;5.982;2023-03-01T16:43:37;14.77;;;8.57;;
36233;SDS011;43467;50.890;5.982;2023-03-01T16:46:09;17.23;;;9.70;;
36233;SDS011;43467;50.890;5.982;2023-03-01T16:48:36;16.77;;;9.23;;
36233;SDS011;43467;50.890;5.982;2023-03-01T16:51:01;14.52;;;9.23;;
36233;SDS011;43467;50.890;5.982;2023-03-01T16:53:27;13.20;;;9.30;;
36233;SDS011;43467;50.890;5.982;2023-03-01T16:55:57;15.68;;;10.15;;
36233;SDS011;43467;50.890;5.982;2023-03-01T16:58:23;15.68;;;10.05;;
36233;SDS011;43467;50.890;5.982;2023-03-01T17:00:52;14.25;;;8.93;;
36233;SDS011;43467;50.890;5.982;2023-03-01T17:03:19;14.15;;;10.00;;
36233;SDS011;43467;50.890;5.982;2023-03-01T17:05:46;16.55;;;9.55;;
36233;SDS011;43467;50.890;5.982;2023-03-01T17:08:11;15.52;;;9.43;;
36233;SDS011;43467;50.890;5.982;2023-03-01T17:10:36;14.85;;;10.35;;
36233;SDS011;43467;50.890;5.982;2023-03-01T17:13:02;16.20;;;9.43;;